sensor_id;sensor_type;location;lat;lon;timestamp;P1;durP1;ratioP1;P2;durP2;ratioP2
69240;SDS011;56352;55.750;13.198;2024-01-11T00:00:29;10.88;;;4.97;;
69240;SDS011;56352;55.750;13.198;2024-01-11T00:02:56;9.13;;;5.03;;
69240;SDS011;56352;55.750;13.198;2024-01-11T00:05:23;10.88;;;5.40;;
69240;SDS011;56352;55.750;13.198;2024-01-11T00:07:50;9.70;;;5.45;;
69240;SDS011;56352;55.750;13.198;2024-01-11T00:10:17;10.75;;;5.38;;
69240;SDS011;56352;55.750;13.198;2024-01-11T00:12:43;14.32;;;6.00;;
69240;SDS011;56352;55.750;13.198;2024-01-11T00:15:10;11.32;;;6.00;;
69240;SDS011;56352;55.750;13.198;2024-01-11T00:17:37;13.23;;;6.75;;
69240;SDS011;56352;55.750;13.198;2024-01-11T00:20:04;12.52;;;6.30;;
69240;SDS011;56352;55.750;13.198;2024-01-11T00:22:31;14.25;;;6.05;;
69240;SDS011;56352;55.750;13.198;2024-01-11T00:24:58;12.00;;;5.25;;
69240;SDS011;56352;55.750;13.198;2024-01-11T00:27:25;10.38;;;6.25;;
69240;SDS011;56352;55.750;13.198;2024-01-11T00:29:52;12.27;;;5.40;;
69240;SDS011;56352;55.750;13.198;2024-01-11T00:32:19;11.77;;;6.05;;
69240;SDS011;56352;55.750;13.198;2024-01-11T00:34:47;10.05;;;6.05;;
69240;SDS011;56352;55.750;13.198;2024-01-11T00:37:14;13.32;;;6.32;;
69240;SDS011;56352;55.750;13.198;2024-01-11T00:39:42;13.50;;;6.38;;
69240;SDS011;56352;55.750;13.198;2024-01-11T00:42:08;11.40;;;6.18;;
69240;SDS011;56352;55.750;13.198;2024-01-11T00:44:35;12.40;;;6.38;;
69240;SDS011;56352;55.750;13.198;2024-01-11T00:47:02;15.82;;;7.50;;
69240;SDS011;56352;55.750;13.198;2024-01-11T00:49:29;13.75;;;7.55;;
69240;SDS011;56352;55.750;13.198;2024-01-11T00:51:56;16.83;;;7.45;;
69240;SDS011;56352;55.750;13.198;2024-01-11T00:54:22;12.35;;;6.93;;
69240;SDS011;56352;55.750;13.198;2024-01-11T00:56:51;13.32;;;7.28;;
69240;SDS011;56352;55.750;13.198;2024-01-11T00:59:18;13.82;;;6.55;;
69240;SDS011;56352;55.750;13.198;2024-01-11T01:01:48;15.20;;;7.00;;
69240;SDS011;56352;55.750;13.198;2024-01-11T01:04:16;16.50;;;8.10;;
69240;SDS011;56352;55.750;13.198;2024-01-11T01:06:42;16.73;;;8.18;;
69240;SDS011;56352;55.750;13.198;2024-01-11T01:09:10;14.95;;;7.47;;
69240;SDS011;56352;55.750;13.198;2024-01-11T01:11:36;16.27;;;6.93;;
69240;SDS011;56352;55.750;13.198;2024-01-11T01:14:04;18.25;;;8.15;;
69240;SDS011;56352;55.750;13.198;2024-01-11T01:16:31;15.25;;;6.82;;
69240;SDS011;56352;55.750;13.198;2024-01-11T01:18:58;17.33;;;6.32;;
69240;SDS011;56352;55.750;13.198;2024-01-11T01:21:25;16.75;;;6.80;;
69240;SDS011;56352;55.750;13.198;2024-01-11T01:23:52;15.18;;;6.80;;
69240;SDS011;56352;55.750;13.198;2024-01-11T01:26:18;14.27;;;5.75;;
69240;SDS011;56352;55.750;13.198;2024-01-11T01:28:46;16.60;;;6.30;;
69240;SDS011;56352;55.750;13.198;2024-01-11T01:31:13;11.32;;;5.68;;
69240;SDS011;56352;55.750;13.198;2024-01-11T01:33:40;16.65;;;6.78;;
69240;SDS011;56352;55.750;13.198;2024-01-11T01:36:08;24.95;;;8.40;;
69240;SDS011;56352;55.750;13.198;2024-01-11T01:38:35;20.38;;;6.60;;
69240;SDS011;56352;55.750;13.198;2024-01-11T01:41:02;14.90;;;7.00;;
69240;SDS011;56352;55.750;13.198;2024-01-11T01:43:29;16.58;;;6.70;;
69240;SDS011;56352;55.750;13.198;2024-01-11T01:45:56;19.50;;;7.25;;
69240;SDS011;56352;55.750;13.198;2024-01-11T01:48:23;21.50;;;7.25;;
69240;SDS011;56352;55.750;13.198;2024-01-11T01:50:50;21.30;;;7.32;;
69240;SDS011;56352;55.750;13.198;2024-01-11T01:53:21;16.95;;;6.55;;
69240;SDS011;56352;55.750;13.198;2024-01-11T01:55:48;18.00;;;7.25;;
69240;SDS011;56352;55.750;13.198;2024-01-11T01:58:16;26.52;;;8.75;;
69240;SDS011;56352;55.750;13.198;2024-01-11T02:00:44;21.58;;;7.25;;
69240;SDS011;56352;55.750;13.198;2024-01-11T02:03:12;30.65;;;8.07;;
69240;SDS011;56352;55.750;13.198;2024-01-11T02:05:40;27.70;;;8.77;;
69240;SDS011;56352;55.750;13.198;2024-01-11T02:08:08;32.17;;;8.18;;
69240;SDS011;56352;55.750;13.198;2024-01-11T02:10:41;22.17;;;7.30;;
69240;SDS011;56352;55.750;13.198;2024-01-11T02:13:08;25.90;;;7.85;;
69240;SDS011;56352;55.750;13.198;2024-01-11T02:15:36;31.73;;;8.23;;
69240;SDS011;56352;55.750;13.198;2024-01-11T02:18:03;20.38;;;7.45;;
69240;SDS011;56352;55.750;13.198;2024-01-11T02:20:30;19.42;;;7.75;;
69240;SDS011;56352;55.750;13.198;2024-01-11T02:23:03;23.67;;;6.93;;
69240;SDS011;56352;55.750;13.198;2024-01-11T02:25:32;24.15;;;6.57;;
69240;SDS011;56352;55.750;13.198;2024-01-11T02:27:59;23.25;;;7.85;;
69240;SDS011;56352;55.750;13.198;2024-01-11T02:30:26;21.25;;;7.25;;
69240;SDS011;56352;55.750;13.198;2024-01-11T02:32:53;21.60;;;8.73;;
69240;SDS011;56352;55.750;13.198;2024-01-11T02:35:20;26.98;;;7.55;;
69240;SDS011;56352;55.750;13.198;2024-01-11T02:37:47;24.55;;;7.53;;
69240;SDS011;56352;55.750;13.198;2024-01-11T02:40:14;23.23;;;7.20;;
69240;SDS011;56352;55.750;13.198;2024-01-11T02:42:41;18.83;;;6.65;;
69240;SDS011;56352;55.750;13.198;2024-01-11T02:45:08;15.88;;;6.82;;
69240;SDS011;56352;55.750;13.198;2024-01-11T02:47:37;23.30;;;6.88;;
69240;SDS011;56352;55.750;13.198;2024-01-11T02:50:05;25.33;;;7.15;;
69240;SDS011;56352;55.750;13.198;2024-01-11T02:52:33;25.50;;;5.70;;
69240;SDS011;56352;55.750;13.198;2024-01-11T02:55:00;19.88;;;6.22;;
69240;SDS011;56352;55.750;13.198;2024-01-11T02:57:27;27.38;;;5.43;;
69240;SDS011;56352;55.750;13.198;2024-01-11T02:59:54;20.27;;;4.93;;
69240;SDS011;56352;55.750;13.198;2024-01-11T03:02:21;12.38;;;4.32;;
69240;SDS011;56352;55.750;13.198;2024-01-11T03:04:48;18.30;;;5.57;;
69240;SDS011;56352;55.750;13.198;2024-01-11T03:07:14;16.77;;;4.60;;
69240;SDS011;56352;55.750;13.198;2024-01-11T03:09:41;10.43;;;3.45;;
69240;SDS011;56352;55.750;13.198;2024-01-11T03:12:08;11.85;;;4.18;;
69240;SDS011;56352;55.750;13.198;2024-01-11T03:14:35;11.85;;;3.80;;
69240;SDS011;56352;55.750;13.198;2024-01-11T03:17:01;10.63;;;3.92;;
69240;SDS011;56352;55.750;13.198;2024-01-11T03:19:28;7.78;;;2.83;;
69240;SDS011;56352;55.750;13.198;2024-01-11T03:21:55;16.30;;;3.65;;
69240;SDS011;56352;55.750;13.198;2024-01-11T03:24:21;14.15;;;3.85;;
69240;SDS011;56352;55.750;13.198;2024-01-11T03:26:48;8.48;;;3.30;;
69240;SDS011;56352;55.750;13.198;2024-01-11T03:29:15;8.98;;;3.53;;
69240;SDS011;56352;55.750;13.198;2024-01-11T03:31:42;8.95;;;3.40;;
69240;SDS011;56352;55.750;13.198;2024-01-11T03:36:38;7.65;;;3.20;;
69240;SDS011;56352;55.750;13.198;2024-01-11T03:39:05;10.98;;;3.25;;
69240;SDS011;56352;55.750;13.198;2024-01-11T03:41:32;12.50;;;4.32;;
69240;SDS011;56352;55.750;13.198;2024-01-11T03:43:59;12.18;;;3.97;;
69240;SDS011;56352;55.750;13.198;2024-01-11T03:46:26;7.90;;;3.40;;
69240;SDS011;56352;55.750;13.198;2024-01-11T03:48:52;10.02;;;3.20;;
69240;SDS011;56352;55.750;13.198;2024-01-11T03:51:21;7.88;;;2.80;;
69240;SDS011;56352;55.750;13.198;2024-01-11T03:53:48;8.98;;;2.83;;
69240;SDS011;56352;55.750;13.198;2024-01-11T03:56:15;7.07;;;2.85;;
69240;SDS011;56352;55.750;13.198;2024-01-11T03:58:42;5.53;;;2.60;;
69240;SDS011;56352;55.750;13.198;2024-01-11T04:01:11;5.40;;;2.78;;
69240;SDS011;56352;55.750;13.198;2024-01-11T04:03:38;12.30;;;3.10;;
69240;SDS011;56352;55.750;13.198;2024-01-11T04:06:05;7.05;;;2.80;;
69240;SDS011;56352;55.750;13.198;2024-01-11T04:08:33;6.55;;;2.22;;
69240;SDS011;56352;55.750;13.198;2024-01-11T04:11:03;6.68;;;2.25;;
69240;SDS011;56352;55.750;13.198;2024-01-11T04:13:33;6.88;;;2.75;;
69240;SDS011;56352;55.750;13.198;2024-01-11T04:16:03;6.53;;;2.90;;
69240;SDS011;56352;55.750;13.198;2024-01-11T04:18:31;7.63;;;2.75;;
69240;SDS011;56352;55.750;13.198;2024-01-11T04:20:58;5.30;;;2.85;;
69240;SDS011;56352;55.750;13.198;2024-01-11T04:23:25;9.00;;;2.83;;
69240;SDS011;56352;55.750;13.198;2024-01-11T04:25:52;5.03;;;2.47;;
69240;SDS011;56352;55.750;13.198;2024-01-11T04:28:18;6.40;;;2.42;;
69240;SDS011;56352;55.750;13.198;2024-01-11T04:30:45;7.43;;;2.92;;
69240;SDS011;56352;55.750;13.198;2024-01-11T04:33:12;7.22;;;3.38;;
69240;SDS011;56352;55.750;13.198;2024-01-11T04:35:39;9.45;;;3.55;;
69240;SDS011;56352;55.750;13.198;2024-01-11T04:38:06;6.70;;;3.25;;
69240;SDS011;56352;55.750;13.198;2024-01-11T04:40:33;6.28;;;3.65;;
69240;SDS011;56352;55.750;13.198;2024-01-11T04:42:59;8.30;;;3.17;;
69240;SDS011;56352;55.750;13.198;2024-01-11T04:45:26;5.70;;;2.70;;
69240;SDS011;56352;55.750;13.198;2024-01-11T04:47:53;7.43;;;3.30;;
69240;SDS011;56352;55.750;13.198;2024-01-11T04:50:20;6.53;;;2.92;;
69240;SDS011;56352;55.750;13.198;2024-01-11T04:55:16;7.65;;;2.92;;
69240;SDS011;56352;55.750;13.198;2024-01-11T04:57:43;5.72;;;3.00;;
69240;SDS011;56352;55.750;13.198;2024-01-11T05:00:10;4.60;;;2.75;;
69240;SDS011;56352;55.750;13.198;2024-01-11T05:02:37;5.57;;;2.63;;
69240;SDS011;56352;55.750;13.198;2024-01-11T05:05:04;5.53;;;3.28;;
69240;SDS011;56352;55.750;13.198;2024-01-11T05:07:31;7.28;;;3.00;;
69240;SDS011;56352;55.750;13.198;2024-01-11T05:09:58;4.60;;;2.60;;
69240;SDS011;56352;55.750;13.198;2024-01-11T05:12:25;4.93;;;2.58;;
69240;SDS011;56352;55.750;13.198;2024-01-11T05:14:51;6.63;;;3.40;;
69240;SDS011;56352;55.750;13.198;2024-01-11T05:17:21;4.80;;;2.97;;
69240;SDS011;56352;55.750;13.198;2024-01-11T05:19:48;6.82;;;3.15;;
69240;SDS011;56352;55.750;13.198;2024-01-11T05:22:15;5.25;;;2.63;;
69240;SDS011;56352;55.750;13.198;2024-01-11T05:24:42;5.22;;;2.58;;
69240;SDS011;56352;55.750;13.198;2024-01-11T05:27:09;4.82;;;2.40;;
69240;SDS011;56352;55.750;13.198;2024-01-11T05:29:36;6.53;;;2.60;;
69240;SDS011;56352;55.750;13.198;2024-01-11T05:32:02;5.13;;;2.50;;
69240;SDS011;56352;55.750;13.198;2024-01-11T05:34:30;7.57;;;2.60;;
69240;SDS011;56352;55.750;13.198;2024-01-11T05:36:56;6.65;;;2.88;;
69240;SDS011;56352;55.750;13.198;2024-01-11T05:39:26;3.83;;;2.60;;
69240;SDS011;56352;55.750;13.198;2024-01-11T05:41:52;4.15;;;2.58;;
69240;SDS011;56352;55.750;13.198;2024-01-11T05:44:19;5.10;;;2.78;;
69240;SDS011;56352;55.750;13.198;2024-01-11T05:46:46;7.03;;;2.50;;
69240;SDS011;56352;55.750;13.198;2024-01-11T05:49:13;4.55;;;2.22;;
69240;SDS011;56352;55.750;13.198;2024-01-11T05:51:40;6.28;;;3.00;;
69240;SDS011;56352;55.750;13.198;2024-01-11T05:54:07;5.47;;;3.00;;
69240;SDS011;56352;55.750;13.198;2024-01-11T05:56:33;5.72;;;3.10;;
69240;SDS011;56352;55.750;13.198;2024-01-11T05:59:00;6.03;;;2.80;;
69240;SDS011;56352;55.750;13.198;2024-01-11T06:01:27;7.90;;;3.90;;
69240;SDS011;56352;55.750;13.198;2024-01-11T06:03:54;7.32;;;3.38;;
69240;SDS011;56352;55.750;13.198;2024-01-11T06:06:21;8.43;;;3.50;;
69240;SDS011;56352;55.750;13.198;2024-01-11T06:08:48;7.50;;;3.00;;
69240;SDS011;56352;55.750;13.198;2024-01-11T06:11:15;4.85;;;2.50;;
69240;SDS011;56352;55.750;13.198;2024-01-11T06:13:44;6.32;;;3.28;;
69240;SDS011;56352;55.750;13.198;2024-01-11T06:16:11;5.70;;;2.60;;
69240;SDS011;56352;55.750;13.198;2024-01-11T06:18:39;4.78;;;2.70;;
69240;SDS011;56352;55.750;13.198;2024-01-11T06:21:05;6.05;;;3.17;;
69240;SDS011;56352;55.750;13.198;2024-01-11T06:23:32;8.38;;;2.97;;
69240;SDS011;56352;55.750;13.198;2024-01-11T06:25:59;7.28;;;3.05;;
69240;SDS011;56352;55.750;13.198;2024-01-11T06:28:26;5.72;;;2.75;;
69240;SDS011;56352;55.750;13.198;2024-01-11T06:30:53;5.18;;;2.80;;
69240;SDS011;56352;55.750;13.198;2024-01-11T06:33:20;5.57;;;3.25;;
69240;SDS011;56352;55.750;13.198;2024-01-11T06:35:47;5.72;;;3.38;;
69240;SDS011;56352;55.750;13.198;2024-01-11T06:38:14;5.20;;;3.13;;
69240;SDS011;56352;55.750;13.198;2024-01-11T06:40:41;6.10;;;3.03;;
69240;SDS011;56352;55.750;13.198;2024-01-11T06:43:08;8.13;;;3.78;;
69240;SDS011;56352;55.750;13.198;2024-01-11T06:45:34;7.25;;;3.00;;
69240;SDS011;56352;55.750;13.198;2024-01-11T06:48:02;7.72;;;3.70;;
69240;SDS011;56352;55.750;13.198;2024-01-11T06:50:29;7.60;;;3.42;;
69240;SDS011;56352;55.750;13.198;2024-01-11T06:52:56;6.82;;;3.33;;
69240;SDS011;56352;55.750;13.198;2024-01-11T06:55:23;5.75;;;3.53;;
69240;SDS011;56352;55.750;13.198;2024-01-11T06:57:49;8.43;;;2.92;;
69240;SDS011;56352;55.750;13.198;2024-01-11T07:00:16;4.90;;;2.70;;
69240;SDS011;56352;55.750;13.198;2024-01-11T07:02:43;5.88;;;2.92;;
69240;SDS011;56352;55.750;13.198;2024-01-11T07:05:09;4.75;;;2.40;;
69240;SDS011;56352;55.750;13.198;2024-01-11T07:07:37;5.55;;;2.65;;
69240;SDS011;56352;55.750;13.198;2024-01-11T07:10:03;5.38;;;2.72;;
69240;SDS011;56352;55.750;13.198;2024-01-11T07:12:31;6.22;;;2.80;;
69240;SDS011;56352;55.750;13.198;2024-01-11T07:14:59;5.63;;;3.00;;
69240;SDS011;56352;55.750;13.198;2024-01-11T07:17:26;6.18;;;2.85;;
69240;SDS011;56352;55.750;13.198;2024-01-11T07:19:52;3.42;;;2.00;;
69240;SDS011;56352;55.750;13.198;2024-01-11T07:22:19;3.55;;;2.03;;
69240;SDS011;56352;55.750;13.198;2024-01-11T07:24:46;3.97;;;1.98;;
69240;SDS011;56352;55.750;13.198;2024-01-11T07:27:13;3.17;;;2.28;;
69240;SDS011;56352;55.750;13.198;2024-01-11T07:29:40;3.20;;;2.20;;
69240;SDS011;56352;55.750;13.198;2024-01-11T07:32:07;3.97;;;2.20;;
69240;SDS011;56352;55.750;13.198;2024-01-11T07:34:34;3.60;;;2.30;;
69240;SDS011;56352;55.750;13.198;2024-01-11T07:37:01;3.47;;;2.22;;
69240;SDS011;56352;55.750;13.198;2024-01-11T07:39:28;3.67;;;2.30;;
69240;SDS011;56352;55.750;13.198;2024-01-11T07:41:57;4.88;;;2.03;;
69240;SDS011;56352;55.750;13.198;2024-01-11T07:44:24;3.22;;;1.77;;
69240;SDS011;56352;55.750;13.198;2024-01-11T07:46:51;3.35;;;2.08;;
69240;SDS011;56352;55.750;13.198;2024-01-11T07:49:21;4.35;;;2.58;;
69240;SDS011;56352;55.750;13.198;2024-01-11T07:51:48;4.28;;;2.30;;
69240;SDS011;56352;55.750;13.198;2024-01-11T07:54:15;3.42;;;2.20;;
69240;SDS011;56352;55.750;13.198;2024-01-11T07:56:42;5.95;;;2.60;;
69240;SDS011;56352;55.750;13.198;2024-01-11T07:59:09;4.38;;;2.40;;
69240;SDS011;56352;55.750;13.198;2024-01-11T08:01:41;4.30;;;2.28;;
69240;SDS011;56352;55.750;13.198;2024-01-11T08:04:08;4.30;;;2.83;;
69240;SDS011;56352;55.750;13.198;2024-01-11T08:06:35;5.38;;;2.47;;
69240;SDS011;56352;55.750;13.198;2024-01-11T08:09:02;4.38;;;2.92;;
69240;SDS011;56352;55.750;13.198;2024-01-11T08:11:31;7.68;;;3.25;;
69240;SDS011;56352;55.750;13.198;2024-01-11T08:14:02;5.40;;;2.75;;
69240;SDS011;56352;55.750;13.198;2024-01-11T08:16:29;4.53;;;2.70;;
69240;SDS011;56352;55.750;13.198;2024-01-11T08:18:55;6.50;;;3.17;;
69240;SDS011;56352;55.750;13.198;2024-01-11T08:21:22;4.40;;;2.58;;
69240;SDS011;56352;55.750;13.198;2024-01-11T08:23:49;5.15;;;2.60;;
69240;SDS011;56352;55.750;13.198;2024-01-11T08:26:15;5.85;;;3.08;;
69240;SDS011;56352;55.750;13.198;2024-01-11T08:31:12;5.43;;;2.53;;
69240;SDS011;56352;55.750;13.198;2024-01-11T08:33:39;5.13;;;3.03;;
69240;SDS011;56352;55.750;13.198;2024-01-11T08:36:06;5.40;;;2.97;;
69240;SDS011;56352;55.750;13.198;2024-01-11T08:38:33;5.10;;;2.80;;
69240;SDS011;56352;55.750;13.198;2024-01-11T08:41:02;5.43;;;3.00;;
69240;SDS011;56352;55.750;13.198;2024-01-11T08:43:30;5.82;;;2.92;;
69240;SDS011;56352;55.750;13.198;2024-01-11T08:45:56;7.10;;;3.13;;
69240;SDS011;56352;55.750;13.198;2024-01-11T08:48:23;5.53;;;3.30;;
69240;SDS011;56352;55.750;13.198;2024-01-11T08:50:50;6.88;;;3.25;;
69240;SDS011;56352;55.750;13.198;2024-01-11T08:53:17;8.15;;;3.72;;
69240;SDS011;56352;55.750;13.198;2024-01-11T08:55:44;7.65;;;3.85;;
69240;SDS011;56352;55.750;13.198;2024-01-11T08:58:12;5.93;;;3.22;;
69240;SDS011;56352;55.750;13.198;2024-01-11T09:00:39;6.80;;;3.53;;
69240;SDS011;56352;55.750;13.198;2024-01-11T09:03:06;7.07;;;3.17;;
69240;SDS011;56352;55.750;13.198;2024-01-11T09:05:33;6.65;;;3.47;;
69240;SDS011;56352;55.750;13.198;2024-01-11T09:08:00;6.43;;;3.30;;
69240;SDS011;56352;55.750;13.198;2024-01-11T09:10:26;5.93;;;3.58;;
69240;SDS011;56352;55.750;13.198;2024-01-11T09:12:53;5.45;;;3.15;;
69240;SDS011;56352;55.750;13.198;2024-01-11T09:15:21;6.60;;;3.92;;
69240;SDS011;56352;55.750;13.198;2024-01-11T09:17:48;4.63;;;3.47;;
69240;SDS011;56352;55.750;13.198;2024-01-11T09:20:15;6.45;;;3.10;;
69240;SDS011;56352;55.750;13.198;2024-01-11T09:22:43;4.85;;;3.17;;
69240;SDS011;56352;55.750;13.198;2024-01-11T09:25:09;5.25;;;3.30;;
69240;SDS011;56352;55.750;13.198;2024-01-11T09:27:36;5.00;;;2.88;;
69240;SDS011;56352;55.750;13.198;2024-01-11T09:30:03;5.72;;;3.53;;
69240;SDS011;56352;55.750;13.198;2024-01-11T09:32:30;7.38;;;3.42;;
69240;SDS011;56352;55.750;13.198;2024-01-11T09:34:58;6.03;;;3.38;;
69240;SDS011;56352;55.750;13.198;2024-01-11T09:37:25;4.78;;;3.35;;
69240;SDS011;56352;55.750;13.198;2024-01-11T09:39:52;5.03;;;3.22;;
69240;SDS011;56352;55.750;13.198;2024-01-11T09:42:19;4.35;;;3.40;;
69240;SDS011;56352;55.750;13.198;2024-01-11T09:44:45;6.63;;;3.58;;
69240;SDS011;56352;55.750;13.198;2024-01-11T09:47:12;5.38;;;3.50;;
69240;SDS011;56352;55.750;13.198;2024-01-11T09:49:45;6.93;;;3.67;;
69240;SDS011;56352;55.750;13.198;2024-01-11T09:52:15;7.13;;;3.70;;
69240;SDS011;56352;55.750;13.198;2024-01-11T09:54:42;5.32;;;3.58;;
69240;SDS011;56352;55.750;13.198;2024-01-11T09:57:09;5.20;;;3.58;;
69240;SDS011;56352;55.750;13.198;2024-01-11T09:59:36;6.78;;;3.28;;
69240;SDS011;56352;55.750;13.198;2024-01-11T10:02:03;6.07;;;3.42;;
69240;SDS011;56352;55.750;13.198;2024-01-11T10:04:32;7.15;;;3.75;;
69240;SDS011;56352;55.750;13.198;2024-01-11T10:06:59;5.30;;;3.65;;
69240;SDS011;56352;55.750;13.198;2024-01-11T10:11:55;3.67;;;2.67;;
69240;SDS011;56352;55.750;13.198;2024-01-11T10:14:22;6.93;;;3.22;;
69240;SDS011;56352;55.750;13.198;2024-01-11T10:16:49;5.32;;;3.33;;
69240;SDS011;56352;55.750;13.198;2024-01-11T10:19:15;4.45;;;3.03;;
69240;SDS011;56352;55.750;13.198;2024-01-11T10:21:43;7.10;;;3.60;;
69240;SDS011;56352;55.750;13.198;2024-01-11T10:24:12;4.53;;;3.40;;
69240;SDS011;56352;55.750;13.198;2024-01-11T10:26:44;4.50;;;2.88;;
69240;SDS011;56352;55.750;13.198;2024-01-11T10:29:11;7.70;;;3.22;;
69240;SDS011;56352;55.750;13.198;2024-01-11T10:31:39;5.15;;;2.85;;
69240;SDS011;56352;55.750;13.198;2024-01-11T10:34:06;6.55;;;3.97;;
69240;SDS011;56352;55.750;13.198;2024-01-11T10:36:34;6.35;;;3.65;;
69240;SDS011;56352;55.750;13.198;2024-01-11T10:39:02;7.80;;;3.58;;
69240;SDS011;56352;55.750;13.198;2024-01-11T10:41:36;5.68;;;3.28;;
69240;SDS011;56352;55.750;13.198;2024-01-11T10:44:07;6.10;;;3.42;;
69240;SDS011;56352;55.750;13.198;2024-01-11T10:46:49;5.18;;;3.28;;
69240;SDS011;56352;55.750;13.198;2024-01-11T10:49:17;4.53;;;3.13;;
69240;SDS011;56352;55.750;13.198;2024-01-11T10:51:45;5.78;;;3.40;;
69240;SDS011;56352;55.750;13.198;2024-01-11T10:54:19;5.10;;;3.63;;
69240;SDS011;56352;55.750;13.198;2024-01-11T10:56:46;6.03;;;4.10;;
69240;SDS011;56352;55.750;13.198;2024-01-11T10:59:13;5.00;;;3.80;;
69240;SDS011;56352;55.750;13.198;2024-01-11T11:01:41;5.28;;;3.40;;
69240;SDS011;56352;55.750;13.198;2024-01-11T11:04:08;8.15;;;4.28;;
69240;SDS011;56352;55.750;13.198;2024-01-11T11:06:36;7.60;;;4.55;;
69240;SDS011;56352;55.750;13.198;2024-01-11T11:09:03;7.22;;;4.25;;
69240;SDS011;56352;55.750;13.198;2024-01-11T11:11:30;5.97;;;4.40;;
69240;SDS011;56352;55.750;13.198;2024-01-11T11:13:58;6.78;;;4.30;;
69240;SDS011;56352;55.750;13.198;2024-01-11T11:16:27;8.90;;;4.15;;
69240;SDS011;56352;55.750;13.198;2024-01-11T11:18:54;6.97;;;4.75;;
69240;SDS011;56352;55.750;13.198;2024-01-11T11:21:21;7.53;;;4.30;;
69240;SDS011;56352;55.750;13.198;2024-01-11T11:23:49;8.13;;;4.80;;
69240;SDS011;56352;55.750;13.198;2024-01-11T11:26:16;7.03;;;4.50;;
69240;SDS011;56352;55.750;13.198;2024-01-11T11:28:47;7.82;;;4.97;;
69240;SDS011;56352;55.750;13.198;2024-01-11T11:31:31;6.40;;;4.63;;
69240;SDS011;56352;55.750;13.198;2024-01-11T11:34:04;6.73;;;4.87;;
69240;SDS011;56352;55.750;13.198;2024-01-11T11:36:32;8.75;;;5.72;;
69240;SDS011;56352;55.750;13.198;2024-01-11T11:39:00;11.27;;;5.47;;
69240;SDS011;56352;55.750;13.198;2024-01-11T11:41:29;7.75;;;5.22;;
69240;SDS011;56352;55.750;13.198;2024-01-11T11:44:03;9.10;;;5.53;;
69240;SDS011;56352;55.750;13.198;2024-01-11T11:46:31;10.90;;;5.55;;
69240;SDS011;56352;55.750;13.198;2024-01-11T11:48:58;10.85;;;5.65;;
69240;SDS011;56352;55.750;13.198;2024-01-11T11:51:26;8.13;;;5.07;;
69240;SDS011;56352;55.750;13.198;2024-01-11T11:53:55;9.57;;;5.03;;
69240;SDS011;56352;55.750;13.198;2024-01-11T11:56:22;9.73;;;5.38;;
69240;SDS011;56352;55.750;13.198;2024-01-11T11:58:50;8.00;;;4.93;;
69240;SDS011;56352;55.750;13.198;2024-01-11T12:01:19;8.65;;;4.88;;
69240;SDS011;56352;55.750;13.198;2024-01-11T12:03:46;8.43;;;5.43;;
69240;SDS011;56352;55.750;13.198;2024-01-11T12:06:17;7.18;;;5.32;;
69240;SDS011;56352;55.750;13.198;2024-01-11T12:08:46;8.68;;;5.50;;
69240;SDS011;56352;55.750;13.198;2024-01-11T12:11:14;7.90;;;5.22;;
69240;SDS011;56352;55.750;13.198;2024-01-11T12:13:44;10.35;;;5.18;;
69240;SDS011;56352;55.750;13.198;2024-01-11T12:16:11;9.35;;;6.03;;
69240;SDS011;56352;55.750;13.198;2024-01-11T12:18:39;9.40;;;5.55;;
69240;SDS011;56352;55.750;13.198;2024-01-11T12:21:06;8.02;;;5.45;;
69240;SDS011;56352;55.750;13.198;2024-01-11T12:23:34;8.18;;;5.32;;
69240;SDS011;56352;55.750;13.198;2024-01-11T12:26:01;7.85;;;5.18;;
69240;SDS011;56352;55.750;13.198;2024-01-11T12:28:32;8.02;;;4.95;;
69240;SDS011;56352;55.750;13.198;2024-01-11T12:30:59;8.57;;;4.63;;
69240;SDS011;56352;55.750;13.198;2024-01-11T12:33:26;10.25;;;5.50;;
69240;SDS011;56352;55.750;13.198;2024-01-11T12:35:54;8.00;;;5.15;;
69240;SDS011;56352;55.750;13.198;2024-01-11T12:38:21;6.35;;;4.93;;
69240;SDS011;56352;55.750;13.198;2024-01-11T12:40:48;8.43;;;5.18;;
69240;SDS011;56352;55.750;13.198;2024-01-11T12:43:15;7.75;;;5.25;;
69240;SDS011;56352;55.750;13.198;2024-01-11T12:45:42;7.90;;;4.95;;
69240;SDS011;56352;55.750;13.198;2024-01-11T12:48:10;7.43;;;5.07;;
69240;SDS011;56352;55.750;13.198;2024-01-11T12:50:40;9.10;;;5.07;;
69240;SDS011;56352;55.750;13.198;2024-01-11T12:55:47;7.85;;;5.35;;
69240;SDS011;56352;55.750;13.198;2024-01-11T12:58:23;9.38;;;5.82;;
69240;SDS011;56352;55.750;13.198;2024-01-11T13:00:52;7.85;;;5.43;;
69240;SDS011;56352;55.750;13.198;2024-01-11T13:03:20;11.02;;;6.00;;
69240;SDS011;56352;55.750;13.198;2024-01-11T13:05:47;10.15;;;6.00;;
69240;SDS011;56352;55.750;13.198;2024-01-11T13:08:15;7.38;;;5.15;;
69240;SDS011;56352;55.750;13.198;2024-01-11T13:10:46;10.50;;;5.47;;
69240;SDS011;56352;55.750;13.198;2024-01-11T13:15:42;8.57;;;5.00;;
69240;SDS011;56352;55.750;13.198;2024-01-11T13:18:09;6.85;;;4.57;;
69240;SDS011;56352;55.750;13.198;2024-01-11T13:20:36;8.85;;;5.75;;
69240;SDS011;56352;55.750;13.198;2024-01-11T13:23:13;8.32;;;5.40;;
69240;SDS011;56352;55.750;13.198;2024-01-11T13:25:44;8.85;;;5.10;;
69240;SDS011;56352;55.750;13.198;2024-01-11T13:28:11;8.93;;;5.47;;
69240;SDS011;56352;55.750;13.198;2024-01-11T13:30:39;9.90;;;6.15;;
69240;SDS011;56352;55.750;13.198;2024-01-11T13:33:06;11.43;;;6.72;;
69240;SDS011;56352;55.750;13.198;2024-01-11T13:35:34;9.55;;;5.63;;
69240;SDS011;56352;55.750;13.198;2024-01-11T13:38:03;11.70;;;6.00;;
69240;SDS011;56352;55.750;13.198;2024-01-11T13:40:31;10.98;;;5.93;;
69240;SDS011;56352;55.750;13.198;2024-01-11T13:42:58;11.48;;;6.05;;
69240;SDS011;56352;55.750;13.198;2024-01-11T13:45:29;9.45;;;5.53;;
69240;SDS011;56352;55.750;13.198;2024-01-11T13:47:57;12.25;;;6.28;;
69240;SDS011;56352;55.750;13.198;2024-01-11T13:50:24;8.85;;;5.85;;
69240;SDS011;56352;55.750;13.198;2024-01-11T13:52:51;10.15;;;6.45;;
69240;SDS011;56352;55.750;13.198;2024-01-11T13:55:19;11.57;;;6.68;;
69240;SDS011;56352;55.750;13.198;2024-01-11T13:57:49;11.15;;;6.45;;
69240;SDS011;56352;55.750;13.198;2024-01-11T14:00:17;11.10;;;6.20;;
69240;SDS011;56352;55.750;13.198;2024-01-11T14:02:46;11.43;;;6.30;;
69240;SDS011;56352;55.750;13.198;2024-01-11T14:05:14;12.57;;;6.38;;
69240;SDS011;56352;55.750;13.198;2024-01-11T14:07:42;11.05;;;6.07;;
69240;SDS011;56352;55.750;13.198;2024-01-11T14:10:13;11.70;;;6.25;;
69240;SDS011;56352;55.750;13.198;2024-01-11T14:12:41;10.60;;;6.63;;
69240;SDS011;56352;55.750;13.198;2024-01-11T14:15:09;11.35;;;6.10;;
69240;SDS011;56352;55.750;13.198;2024-01-11T14:17:40;10.50;;;6.78;;
69240;SDS011;56352;55.750;13.198;2024-01-11T14:20:08;11.15;;;6.68;;
69240;SDS011;56352;55.750;13.198;2024-01-11T14:22:41;13.57;;;7.93;;
69240;SDS011;56352;55.750;13.198;2024-01-11T14:25:08;12.68;;;7.13;;
69240;SDS011;56352;55.750;13.198;2024-01-11T14:27:39;10.80;;;6.28;;
69240;SDS011;56352;55.750;13.198;2024-01-11T14:30:06;17.80;;;7.50;;
69240;SDS011;56352;55.750;13.198;2024-01-11T14:32:33;11.88;;;6.55;;
69240;SDS011;56352;55.750;13.198;2024-01-11T14:37:32;11.48;;;6.38;;
69240;SDS011;56352;55.750;13.198;2024-01-11T14:39:59;9.73;;;6.40;;
69240;SDS011;56352;55.750;13.198;2024-01-11T14:42:26;10.43;;;6.82;;
69240;SDS011;56352;55.750;13.198;2024-01-11T14:44:54;12.52;;;6.95;;
69240;SDS011;56352;55.750;13.198;2024-01-11T14:47:21;11.00;;;6.82;;
69240;SDS011;56352;55.750;13.198;2024-01-11T14:49:49;12.20;;;6.97;;